createdAt,value
2018-03-27T00:01:51.499Z,23.73
2018-03-27T00:06:54.125Z,23.07
2018-03-27T00:11:56.701Z,23.00
2018-03-27T00:17:02.535Z,23.00
2018-03-27T00:22:05.118Z,23.97
2018-03-27T00:27:07.257Z,23.73
2018-03-27T00:32:24.570Z,24.87
2018-03-27T00:37:39.305Z,24.23
2018-03-27T00:42:43.719Z,25.20
2018-03-27T00:47:46.926Z,26.87
2018-03-27T00:52:50.288Z,26.50
2018-03-27T00:57:52.883Z,27.20
2018-03-27T01:02:57.350Z,25.07
2018-03-27T01:08:01.070Z,27.30
2018-03-27T01:13:03.665Z,28.80
2018-03-27T01:18:06.274Z,26.93
2018-03-27T01:23:08.859Z,26.80
2018-03-27T01:28:11.453Z,28.90
2018-03-27T01:33:14.070Z,29.50
2018-03-27T01:38:16.684Z,28.03
2018-03-27T01:43:19.274Z,27.17
2018-03-27T01:48:21.852Z,29.33
2018-03-27T01:53:24.472Z,27.00
2018-03-27T01:58:27.078Z,28.30
2018-03-27T02:03:29.670Z,27.27
2018-03-27T02:08:32.909Z,24.97
2018-03-27T02:13:41.187Z,23.30
2018-03-27T02:18:49.313Z,24.30
2018-03-27T02:23:56.760Z,25.47
2018-03-27T02:29:06.432Z,25.03
2018-03-27T02:34:09.040Z,26.00
2018-03-27T02:39:11.630Z,26.30
2018-03-27T02:44:14.896Z,26.20
2018-03-27T02:49:18.260Z,26.90
2018-03-27T02:54:20.863Z,27.73
2018-03-27T02:59:23.574Z,26.97
2018-03-27T03:04:26.493Z,27.43
2018-03-27T03:09:32.753Z,24.73
2018-03-27T03:14:35.338Z,26.30
2018-03-27T03:19:38.024Z,23.70
2018-03-27T03:24:43.267Z,23.27
2018-03-27T03:29:46.613Z,24.00
2018-03-27T03:34:49.757Z,22.90
2018-03-27T03:39:52.365Z,24.90
2018-03-27T03:44:54.970Z,23.60
2018-03-27T03:49:57.556Z,22.83
2018-03-27T03:55:02.070Z,25.73
2018-03-27T04:00:04.656Z,25.20
2018-03-27T04:05:09.685Z,25.93
2018-03-27T04:10:13.029Z,26.03
2018-03-27T04:15:18.274Z,26.50
2018-03-27T04:20:21.621Z,24.87
2018-03-27T04:25:25.428Z,24.50
2018-03-27T04:30:28.844Z,26.00
2018-03-27T04:35:32.678Z,23.30
2018-03-27T04:40:35.264Z,24.00
2018-03-27T04:45:38.637Z,24.50
2018-03-27T04:50:41.238Z,25.80
2018-03-27T04:55:44.246Z,24.00
2018-03-27T05:00:46.827Z,23.10
2018-03-27T05:05:49.417Z,24.03
2018-03-27T05:10:51.990Z,25.60
2018-03-27T05:15:54.612Z,24.40
2018-03-27T05:20:57.203Z,26.07
2018-03-27T05:25:59.821Z,26.37
2018-03-27T05:31:08.469Z,26.00
2018-03-27T05:36:11.062Z,25.27
2018-03-27T05:41:16.375Z,27.77
2018-03-27T05:46:18.966Z,26.20
2018-03-27T05:51:24.020Z,25.50
2018-03-27T05:56:27.450Z,24.33
2018-03-27T06:01:30.047Z,26.20
2018-03-27T06:06:32.642Z,25.40
2018-03-27T06:11:36.633Z,27.33
2018-03-27T06:16:39.225Z,27.37
2018-03-27T06:21:42.604Z,28.83
2018-03-27T06:26:45.781Z,26.67
2018-03-27T06:31:48.404Z,26.83
2018-03-27T06:36:50.982Z,27.27
2018-03-27T06:41:53.837Z,28.77
2018-03-27T06:46:59.047Z,28.43
2018-03-27T06:52:01.648Z,28.97
2018-03-27T06:57:04.245Z,28.70
2018-03-27T07:02:07.379Z,30.00
2018-03-27T07:07:10.009Z,28.03
2018-03-27T07:12:12.635Z,30.17
2018-03-27T07:17:15.986Z,27.63
2018-03-27T07:22:19.305Z,27.17
2018-03-27T07:27:25.408Z,27.60
2018-03-27T07:32:28.090Z,25.47
2018-03-27T07:37:30.620Z,24.80
2018-03-27T07:42:33.212Z,24.87
2018-03-27T07:47:37.705Z,28.50
2018-03-27T07:52:41.537Z,28.47
2018-03-27T07:57:44.120Z,28.53
2018-03-27T08:02:46.712Z,28.37
2018-03-27T08:07:52.107Z,28.17
2018-03-27T08:12:55.169Z,27.80
2018-03-27T08:17:57.988Z,26.53
2018-03-27T08:23:01.960Z,28.40
2018-03-27T08:28:04.572Z,25.03
2018-03-27T08:33:08.587Z,27.10
2018-03-27T08:38:11.221Z,27.63
2018-03-27T08:43:16.512Z,25.30
2018-03-27T08:48:19.914Z,25.10
2018-03-27T08:53:22.543Z,25.63
2018-03-27T08:58:25.962Z,24.60
2018-03-27T09:03:29.360Z,24.73
2018-03-27T09:08:32.581Z,25.37
2018-03-27T09:13:35.228Z,26.07
2018-03-27T09:18:37.842Z,26.97
2018-03-27T09:23:40.466Z,28.20
2018-03-27T09:28:43.079Z,24.60
2018-03-27T09:33:45.700Z,24.57
2018-03-27T09:38:48.305Z,26.37
2018-03-27T09:43:50.910Z,26.07
2018-03-27T09:48:54.294Z,26.00
2018-03-27T09:53:56.895Z,25.23
2018-03-27T09:58:59.494Z,25.87
2018-03-27T10:04:02.093Z,24.17
2018-03-27T10:09:05.647Z,21.87
2018-03-27T10:14:08.248Z,24.57
2018-03-27T10:19:11.612Z,23.90
2018-03-27T10:24:14.230Z,24.40
2018-03-27T10:29:16.819Z,22.10
2018-03-27T10:34:19.420Z,23.63
2018-03-27T10:39:22.413Z,21.77
2018-03-27T10:44:25.037Z,22.67
2018-03-27T10:49:27.630Z,21.47
2018-03-27T10:54:30.250Z,20.17
2018-03-27T10:59:32.866Z,16.83
2018-03-27T11:04:35.494Z,19.10
2018-03-27T11:09:38.082Z,17.70
2018-03-27T11:14:41.464Z,16.60
2018-03-27T11:19:44.058Z,18.03
2018-03-27T11:24:47.295Z,16.77
2018-03-27T11:29:50.502Z,17.13
2018-03-27T11:34:53.115Z,16.13
2018-03-27T11:39:55.724Z,16.77
2018-03-27T11:44:58.309Z,16.97
2018-03-27T11:50:00.910Z,16.03
2018-03-27T11:55:03.574Z,15.77
2018-03-27T12:00:06.919Z,16.77
2018-03-27T12:05:09.517Z,16.20
2018-03-27T12:10:12.130Z,16.83
2018-03-27T12:15:14.791Z,16.80
2018-03-27T12:20:18.125Z,16.20
2018-03-27T12:25:20.713Z,16.53
2018-03-27T12:30:23.346Z,17.10
2018-03-27T12:35:25.941Z,17.40
2018-03-27T12:40:29.464Z,18.60
2018-03-27T12:45:32.074Z,18.37
2018-03-27T12:50:35.460Z,17.03
2018-03-27T12:55:38.058Z,18.43
2018-03-27T13:00:40.648Z,18.83
2018-03-27T13:05:48.141Z,17.30
2018-03-27T13:10:50.719Z,17.70
2018-03-27T13:15:53.321Z,18.27
2018-03-27T13:20:55.924Z,16.57
2018-03-27T13:25:58.509Z,16.77
2018-03-27T13:31:01.109Z,16.03
2018-03-27T13:36:03.696Z,16.47
2018-03-27T13:41:06.294Z,15.67
2018-03-27T13:46:08.894Z,15.57
2018-03-27T13:51:11.510Z,15.20
2018-03-27T13:56:14.113Z,14.67
2018-03-27T14:01:16.722Z,14.90
2018-03-27T14:06:19.322Z,13.80
2018-03-27T14:11:21.913Z,14.37
2018-03-27T14:16:25.062Z,13.70
2018-03-27T14:21:27.649Z,14.77
2018-03-27T14:26:30.997Z,13.60
2018-03-27T14:31:36.240Z,14.47
2018-03-27T14:36:40.544Z,14.27
2018-03-27T14:41:44.568Z,14.13
2018-03-27T14:46:47.915Z,14.40
2018-03-27T14:51:50.502Z,15.00
2018-03-27T14:56:53.951Z,13.03
2018-03-27T15:01:56.537Z,13.63
2018-03-27T15:06:59.135Z,11.80
2018-03-27T15:12:02.492Z,13.50
2018-03-27T15:17:05.220Z,12.77
2018-03-27T15:22:09.810Z,14.03
2018-03-27T15:27:14.266Z,14.07
2018-03-27T15:32:16.876Z,13.40
2018-03-27T15:37:19.471Z,12.43
2018-03-27T15:42:23.545Z,12.57
2018-03-27T15:47:26.146Z,13.50
2018-03-27T15:52:28.730Z,12.53
2018-03-27T15:57:31.341Z,13.20
2018-03-27T16:02:33.940Z,13.73
2018-03-27T16:07:37.388Z,13.50
2018-03-27T16:12:39.973Z,12.63
2018-03-27T16:17:43.226Z,12.93
2018-03-27T16:22:46.583Z,13.23
2018-03-27T16:27:49.465Z,13.23
2018-03-27T16:32:52.877Z,12.10
2018-03-27T16:37:55.458Z,12.30
2018-03-27T16:42:58.826Z,13.17
2018-03-27T16:48:01.425Z,12.53
2018-03-27T16:53:04.674Z,12.50
2018-03-27T16:58:07.264Z,12.20
2018-03-27T17:03:10.109Z,10.97
2018-03-27T17:08:13.373Z,11.40
2018-03-27T17:13:15.985Z,11.53
2018-03-27T17:18:18.592Z,11.50
2018-03-27T17:23:21.222Z,12.33
2018-03-27T17:28:24.273Z,11.87
2018-03-27T17:33:27.158Z,11.80
2018-03-27T17:38:30.045Z,11.60
2018-03-27T17:43:32.661Z,11.90
2018-03-27T17:48:35.522Z,12.80
2018-03-27T17:53:38.696Z,13.27
2018-03-27T17:58:41.301Z,12.90
2018-03-27T18:03:44.255Z,14.00
2018-03-27T18:08:47.629Z,14.40
2018-03-27T18:13:51.973Z,15.30
2018-03-27T18:18:56.497Z,15.90
2018-03-27T18:23:59.134Z,15.33
2018-03-27T18:29:03.130Z,15.83
2018-03-27T18:34:05.849Z,15.50
2018-03-27T18:39:09.217Z,17.20
2018-03-27T18:44:11.802Z,17.90
2018-03-27T18:49:14.413Z,17.37
2018-03-27T18:54:17.020Z,18.83
2018-03-27T18:59:19.937Z,19.30
2018-03-27T19:04:23.017Z,18.63
2018-03-27T19:09:26.217Z,18.67
2018-03-27T19:14:29.081Z,21.80
2018-03-27T19:19:31.706Z,20.80
2018-03-27T19:24:35.930Z,21.23
2018-03-27T19:29:39.401Z,22.90
2018-03-27T19:34:42.453Z,22.07
2018-03-27T19:39:45.046Z,24.00
2018-03-27T19:44:47.905Z,24.50
2018-03-27T19:49:50.531Z,24.80
2018-03-27T19:54:53.167Z,25.57
2018-03-27T19:59:55.768Z,25.27
2018-03-27T20:04:58.359Z,25.40
2018-03-27T20:10:00.984Z,25.93
2018-03-27T20:15:06.718Z,24.47
2018-03-27T20:20:09.753Z,24.60
2018-03-27T20:25:12.351Z,23.00
2018-03-27T20:30:22.121Z,22.20
2018-03-27T20:35:25.050Z,23.27
2018-03-27T20:40:28.414Z,23.27
2018-03-27T20:45:31.580Z,22.17
2018-03-27T20:50:34.212Z,20.43
2018-03-27T20:55:36.803Z,20.37
2018-03-27T21:00:42.068Z,19.63
2018-03-27T21:05:48.213Z,20.73
2018-03-27T21:10:51.576Z,18.83
2018-03-27T21:15:54.599Z,18.23
2018-03-27T21:20:57.491Z,18.80
2018-03-27T21:26:00.078Z,16.90
2018-03-27T21:31:02.669Z,18.30
2018-03-27T21:36:07.880Z,18.20
2018-03-27T21:41:10.485Z,17.57
2018-03-27T21:46:13.078Z,14.87
2018-03-27T21:51:15.677Z,15.43
2018-03-27T21:56:18.541Z,16.40
2018-03-27T22:01:21.132Z,17.03
2018-03-27T22:06:29.862Z,17.30
2018-03-27T22:11:33.229Z,17.10
2018-03-27T22:16:36.098Z,18.67
2018-03-27T22:21:38.686Z,19.17
2018-03-27T22:26:42.046Z,17.70
2018-03-27T22:31:47.226Z,18.57
2018-03-27T22:37:04.491Z,17.97
2018-03-27T22:42:07.107Z,19.27
2018-03-27T22:47:09.889Z,18.97
2018-03-27T22:52:12.506Z,19.13
2018-03-27T22:57:15.147Z,18.70
2018-03-27T23:02:18.151Z,19.40
2018-03-27T23:07:20.749Z,18.77
2018-03-27T23:12:23.341Z,18.53
2018-03-27T23:17:26.696Z,18.10
2018-03-27T23:22:31.540Z,17.07
2018-03-27T23:27:34.133Z,16.13
2018-03-27T23:32:36.968Z,16.80
2018-03-27T23:37:39.557Z,14.60
2018-03-27T23:42:43.016Z,14.50
2018-03-27T23:47:45.630Z,12.70
2018-03-27T23:52:48.227Z,11.77
2018-03-27T23:57:50.859Z,12.17
